Accueil
METAR-TAF:

METAR-TAF

Aéroports :

Aéroport international Saint-Gall-Altenrhein

Saint-Gall, Suisse

latitude: 47-29-06N, longitude: 009-33-43E, altitude: 398 m

Observation

Le bulletin a été fait il y a 1 heure et 19 minutes, à 10:50 UTC
Vent 6 kt de nord-ouest, variant entre ouest/nord-ouest et nord
Température 9°C
Humidité 46%
Pression 1017 hPa
Visibilité 10 km ou plus
pas de nuages en-dessous de 1500 mètres et pas de cumulonimbus.

METAR: LSZR 031050Z AUTO 32006KT 290V360 CAVOK 09/M02 Q1017

Heure: 14:09 (12:09 UTC)

Prévision

Le bulletin a été fait il y a 44 minutes, à 11:25 UTC
Prévision valable du 03 à 12 UTC au 03 à 21 UTC
Vent 5 kt de ouest/nord-ouest
Visibilité 10 km ou plus
pas de nuages en-dessous de 1500 mètres et pas de cumulonimbus.
Evoluant progressivement
du 03 à 12 UTC au 03 à 13 UTC
Visibilité 10 km ou plus
Quelques nuages à une hauteur de 7500 ft

TAF: LSZR 031125Z 0312/0321 30005KT CAVOK BECMG 0312/0313 9999 FEW075

Observations et prévisions météorologiques de plus de 4000 aéroports (messages METAR et TAF).

Les stations disponibles sont représentées par des disques jaunes et rouges sur la carte.

Passer la souris dessus pour voir le nom de la station.

Cliquer dessus pour voir les observations et prévisions météorologiques.

Pour changer de carte: cliquez sur les boutons verts avec une croix noire pour zoomer, sur le bouton vert avec un tiret pour effectuer un zoom arrière, ou sur les flèches vertes pour les cartes adjacentes.


METAR-TAF: